Last 6 Hours

AM-Scott Top 8120'

15 Minute Data | America/Los_Angeles
as of 5/4/26 5:49 AM PDT
Date & Time Temp (°F) RH (%) Dew Pt (°F) Wet Bulb (°F) Wind Dir (°) Wind Spd (mph) Wind Gust (mph) WindChill (°F) Daily Min Temp (°F) Daily Max Temp (°F)
5/4/26 - 0545 34.9 94 33.3 34.1 SSE | 158 6.3 9.8 29.4 34.9 40.4
5/4/26 - 0530 36.6 89 33.5 35.1 SE | 133 3.2 5.8 36.6 34.9 40.4
5/4/26 - 0515 36.0 91 33.7 34.9 SE | 144 4.4 7.1 36.0 34.9 40.4
5/4/26 - 0500 35.5 95 34.3 34.9 SSE | 165 6.3 8.5 30.5 34.9 40.4
5/4/26 - 0445 35.6 95 34.3 35.0 SSE | 164 8.0 9.6 30.0 34.9 40.4
5/4/26 - 0430 35.5 95 34.2 34.9 SSE | 161 6.7 11.0 29.1 34.9 40.4
5/4/26 - 0415 35.2 94 33.7 34.5 S | 177 5.3 9.4 35.2 34.9 40.4
5/4/26 - 0400 35.4 92 33.4 34.5 SSE | 167 7.1 9.5 31.1 34.9 40.4
5/4/26 - 0345 35.7 91 33.2 34.5 SSE | 151 3.6 7.3 29.9 35.7 40.4
5/4/26 - 0330 37.3 84 32.9 35.2 SSW | 193 3.3 6.8 37.3 36.6 40.4
5/4/26 - 0315 37.0 86 33.1 35.1 ENE | 67 2.7 7.5 37.0 36.9 40.4
5/4/26 - 0300 37.6 79 31.9 34.9 N | 352 2.7 5.3 37.6 36.9 40.4
5/4/26 - 0245 36.9 86 33.0 35.1 NNW | 341 5.2 8.1 33.1 36.9 40.4
5/4/26 - 0230 37.2 84 32.7 35.1 NNW | 340 5.9 9.8 33.0 37.1 40.4
5/4/26 - 0215 37.5 82 32.4 35.1 N | 359 4.5 11.9 32.5 37.1 40.4
5/4/26 - 0200 37.3 82 32.5 35.0 N | 358 4.8 9.9 37.3 37.1 40.4
5/4/26 - 0145 38.3 80 32.8 35.6 N | 351 7.3 11.2 33.7 37.1 40.4
5/4/26 - 0130 37.9 82 33.0 35.5 E | 100 4.1 9.1 32.1 37.1 40.4
5/4/26 - 0115 37.1 88 34.0 35.5 WSW | 255 1.6 6.7 37.1 37.1 40.4
5/4/26 - 0100 37.6 87 34.2 35.9 N | 9 3.5 10.1 37.6 37.6 40.4
5/4/26 - 0045 38.6 80 32.9 35.8 N | 358 6.1 10.6 33.4 37.7 40.4
5/4/26 - 0030 39.1 74 31.5 35.5 N | 352 7.6 11.9 34.3 38.5 40.4
5/4/26 - 0015 40.1 67 30.1 35.5 NNE | 20 5.1 10.6 37.6 38.5 40.3
5/4/26 - 0000 38.5 71 29.8 34.4 NE | 39 1.9 7.5 38.5 33.3 55.0
Max 40.1 95 34.3 35.9 - 8.0 11.9 38.5 38.5 55.0
Avg 37.0 85 32.9 35.1 - 4.9 9.0 34.2 - -
Min 34.9 67 29.8 34.1 - 1.6 5.3 29.1 33.3 40.3